sensor_id;sensor_type;location;lat;lon;timestamp;temperature;humidity
66144;SHT31;52947;50.842;6.084;2023-10-31T00:00:36;10.23;97.18
66144;SHT31;52947;50.842;6.084;2023-10-31T00:03:04;10.19;97.51
66144;SHT31;52947;50.842;6.084;2023-10-31T00:05:32;10.22;97.22
66144;SHT31;52947;50.842;6.084;2023-10-31T00:08:00;10.20;96.82
66144;SHT31;52947;50.842;6.084;2023-10-31T00:10:29;10.19;97.12
66144;SHT31;52947;50.842;6.084;2023-10-31T00:12:57;10.15;97.12
66144;SHT31;52947;50.842;6.084;2023-10-31T00:15:25;10.09;96.95
66144;SHT31;52947;50.842;6.084;2023-10-31T00:18:12;10.59;99.89
66144;SHT31;52947;50.842;6.084;2023-10-31T00:20:40;11.14;97.79
66144;SHT31;52947;50.842;6.084;2023-10-31T00:23:10;10.85;94.64
66144;SHT31;52947;50.842;6.084;2023-10-31T00:25:38;11.10;95.85
66144;SHT31;52947;50.842;6.084;2023-10-31T00:28:06;11.34;96.57
66144;SHT31;52947;50.842;6.084;2023-10-31T00:30:34;11.71;95.67
66144;SHT31;52947;50.842;6.084;2023-10-31T00:33:02;11.52;93.42
66144;SHT31;52947;50.842;6.084;2023-10-31T00:35:31;11.31;96.22
66144;SHT31;52947;50.842;6.084;2023-10-31T00:37:59;11.39;95.51
66144;SHT31;52947;50.842;6.084;2023-10-31T00:40:27;11.25;96.13
66144;SHT31;52947;50.842;6.084;2023-10-31T00:42:56;11.30;94.49
66144;SHT31;52947;50.842;6.084;2023-10-31T00:45:26;11.06;95.15
66144;SHT31;52947;50.842;6.084;2023-10-31T00:47:54;10.84;95.47
66144;SHT31;52947;50.842;6.084;2023-10-31T00:50:22;10.70;96.34
66144;SHT31;52947;50.842;6.084;2023-10-31T00:52:52;10.53;96.33
66144;SHT31;52947;50.842;6.084;2023-10-31T00:55:20;10.63;96.26
66144;SHT31;52947;50.842;6.084;2023-10-31T00:57:48;10.91;96.50
66144;SHT31;52947;50.842;6.084;2023-10-31T01:00:16;10.81;95.42
66144;SHT31;52947;50.842;6.084;2023-10-31T01:02:44;10.80;95.75
66144;SHT31;52947;50.842;6.084;2023-10-31T01:05:13;10.77;95.59
66144;SHT31;52947;50.842;6.084;2023-10-31T01:07:41;10.81;96.23
66144;SHT31;52947;50.842;6.084;2023-10-31T01:10:10;10.74;95.81
66144;SHT31;52947;50.842;6.084;2023-10-31T01:12:38;10.71;95.73
66144;SHT31;52947;50.842;6.084;2023-10-31T01:15:06;10.73;95.48
66144;SHT31;52947;50.842;6.084;2023-10-31T01:17:34;10.89;95.43
66144;SHT31;52947;50.842;6.084;2023-10-31T01:20:03;11.00;96.38
66144;SHT31;52947;50.842;6.084;2023-10-31T01:22:31;10.89;95.30
66144;SHT31;52947;50.842;6.084;2023-10-31T01:24:59;10.87;95.19
66144;SHT31;52947;50.842;6.084;2023-10-31T01:27:30;10.84;94.92
66144;SHT31;52947;50.842;6.084;2023-10-31T01:29:58;10.85;95.10
66144;SHT31;52947;50.842;6.084;2023-10-31T01:32:26;10.80;95.10
66144;SHT31;52947;50.842;6.084;2023-10-31T01:34:54;11.03;94.62
66144;SHT31;52947;50.842;6.084;2023-10-31T01:37:22;10.97;95.05
66144;SHT31;52947;50.842;6.084;2023-10-31T01:39:50;10.99;95.06
66144;SHT31;52947;50.842;6.084;2023-10-31T01:42:18;10.90;95.08
66144;SHT31;52947;50.842;6.084;2023-10-31T01:44:47;10.96;94.75
66144;SHT31;52947;50.842;6.084;2023-10-31T01:47:14;10.89;95.44
66144;SHT31;52947;50.842;6.084;2023-10-31T01:49:43;10.76;96.32
66144;SHT31;52947;50.842;6.084;2023-10-31T01:52:11;10.85;95.79
66144;SHT31;52947;50.842;6.084;2023-10-31T01:54:39;10.84;95.60
66144;SHT31;52947;50.842;6.084;2023-10-31T01:57:24;10.80;95.76
66144;SHT31;52947;50.842;6.084;2023-10-31T01:59:54;10.77;95.65
66144;SHT31;52947;50.842;6.084;2023-10-31T02:02:22;10.76;96.09
66144;SHT31;52947;50.842;6.084;2023-10-31T02:04:51;10.70;95.64
66144;SHT31;52947;50.842;6.084;2023-10-31T02:07:22;10.66;96.28
66144;SHT31;52947;50.842;6.084;2023-10-31T02:09:50;10.59;96.22
66144;SHT31;52947;50.842;6.084;2023-10-31T02:12:31;10.67;95.78
66144;SHT31;52947;50.842;6.084;2023-10-31T02:15:01;10.69;96.19
66144;SHT31;52947;50.842;6.084;2023-10-31T02:17:30;10.67;96.04
66144;SHT31;52947;50.842;6.084;2023-10-31T02:19:58;10.66;96.05
66144;SHT31;52947;50.842;6.084;2023-10-31T02:22:27;10.81;96.58
66144;SHT31;52947;50.842;6.084;2023-10-31T02:24:55;10.63;95.62
66144;SHT31;52947;50.842;6.084;2023-10-31T02:27:24;10.59;96.16
66144;SHT31;52947;50.842;6.084;2023-10-31T02:29:52;10.60;96.30
66144;SHT31;52947;50.842;6.084;2023-10-31T02:32:20;10.60;96.40
66144;SHT31;52947;50.842;6.084;2023-10-31T02:34:49;10.61;96.24
66144;SHT31;52947;50.842;6.084;2023-10-31T02:37:17;10.55;95.58
66144;SHT31;52947;50.842;6.084;2023-10-31T02:39:46;10.45;95.74
66144;SHT31;52947;50.842;6.084;2023-10-31T02:42:14;10.43;95.79
66144;SHT31;52947;50.842;6.084;2023-10-31T02:44:42;10.56;96.47
66144;SHT31;52947;50.842;6.084;2023-10-31T02:47:10;10.63;96.00
66144;SHT31;52947;50.842;6.084;2023-10-31T02:49:38;10.60;95.83
66144;SHT31;52947;50.842;6.084;2023-10-31T02:52:06;10.57;95.75
66144;SHT31;52947;50.842;6.084;2023-10-31T02:54:34;10.74;95.84
66144;SHT31;52947;50.842;6.084;2023-10-31T02:57:22;10.67;95.43
66144;SHT31;52947;50.842;6.084;2023-10-31T02:59:50;10.64;95.15
66144;SHT31;52947;50.842;6.084;2023-10-31T03:02:18;10.59;95.34
66144;SHT31;52947;50.842;6.084;2023-10-31T03:04:47;10.69;94.93
66144;SHT31;52947;50.842;6.084;2023-10-31T03:07:15;10.70;94.77
66144;SHT31;52947;50.842;6.084;2023-10-31T03:09:43;10.79;95.80
66144;SHT31;52947;50.842;6.084;2023-10-31T03:12:11;10.85;95.01
66144;SHT31;52947;50.842;6.084;2023-10-31T03:14:42;10.77;94.56
66144;SHT31;52947;50.842;6.084;2023-10-31T03:17:10;10.83;95.08
66144;SHT31;52947;50.842;6.084;2023-10-31T03:19:38;10.80;94.71
66144;SHT31;52947;50.842;6.084;2023-10-31T03:22:06;10.90;95.54
66144;SHT31;52947;50.842;6.084;2023-10-31T03:24:34;11.07;95.10
66144;SHT31;52947;50.842;6.084;2023-10-31T03:27:02;11.01;95.47
66144;SHT31;52947;50.842;6.084;2023-10-31T03:29:30;10.91;94.83
66144;SHT31;52947;50.842;6.084;2023-10-31T03:32:01;11.08;94.44
66144;SHT31;52947;50.842;6.084;2023-10-31T03:34:29;10.94;94.33
66144;SHT31;52947;50.842;6.084;2023-10-31T03:36:57;11.15;94.98
66144;SHT31;52947;50.842;6.084;2023-10-31T03:39:25;11.08;94.51
66144;SHT31;52947;50.842;6.084;2023-10-31T03:41:53;11.04;94.48
66144;SHT31;52947;50.842;6.084;2023-10-31T03:44:23;11.18;94.65
66144;SHT31;52947;50.842;6.084;2023-10-31T03:46:51;11.08;93.82
66144;SHT31;52947;50.842;6.084;2023-10-31T03:49:21;10.99;94.41
66144;SHT31;52947;50.842;6.084;2023-10-31T03:51:49;10.91;94.74
66144;SHT31;52947;50.842;6.084;2023-10-31T03:54:17;10.81;94.54
66144;SHT31;52947;50.842;6.084;2023-10-31T03:56:45;10.76;94.34
66144;SHT31;52947;50.842;6.084;2023-10-31T03:59:13;10.96;94.52
66144;SHT31;52947;50.842;6.084;2023-10-31T04:01:41;10.84;94.81
66144;SHT31;52947;50.842;6.084;2023-10-31T04:04:09;10.71;95.26
66144;SHT31;52947;50.842;6.084;2023-10-31T04:06:38;10.66;95.39
66144;SHT31;52947;50.842;6.084;2023-10-31T04:09:09;10.60;95.08
66144;SHT31;52947;50.842;6.084;2023-10-31T04:11:37;10.57;95.00
66144;SHT31;52947;50.842;6.084;2023-10-31T04:14:06;10.70;94.93
66144;SHT31;52947;50.842;6.084;2023-10-31T04:16:38;10.80;94.62
66144;SHT31;52947;50.842;6.084;2023-10-31T04:19:06;10.59;94.65
66144;SHT31;52947;50.842;6.084;2023-10-31T04:21:34;10.71;94.36
66144;SHT31;52947;50.842;6.084;2023-10-31T04:24:05;10.81;94.53
66144;SHT31;52947;50.842;6.084;2023-10-31T04:26:34;10.83;94.58
66144;SHT31;52947;50.842;6.084;2023-10-31T04:29:02;10.94;94.27
66144;SHT31;52947;50.842;6.084;2023-10-31T04:31:29;10.89;94.87
66144;SHT31;52947;50.842;6.084;2023-10-31T04:34:12;10.64;94.04
66144;SHT31;52947;50.842;6.084;2023-10-31T04:36:40;10.77;95.07
66144;SHT31;52947;50.842;6.084;2023-10-31T04:39:09;10.61;94.20
66144;SHT31;52947;50.842;6.084;2023-10-31T04:41:37;10.85;94.47
66144;SHT31;52947;50.842;6.084;2023-10-31T04:44:05;10.74;94.30
66144;SHT31;52947;50.842;6.084;2023-10-31T04:46:34;10.61;94.59
66144;SHT31;52947;50.842;6.084;2023-10-31T04:49:02;10.61;94.58
66144;SHT31;52947;50.842;6.084;2023-10-31T04:51:33;10.64;94.56
66144;SHT31;52947;50.842;6.084;2023-10-31T04:54:01;10.66;94.86
66144;SHT31;52947;50.842;6.084;2023-10-31T04:56:30;10.50;94.82
66144;SHT31;52947;50.842;6.084;2023-10-31T04:58:59;10.46;95.27
66144;SHT31;52947;50.842;6.084;2023-10-31T05:01:27;10.40;94.93
66144;SHT31;52947;50.842;6.084;2023-10-31T05:03:55;10.43;95.03
66144;SHT31;52947;50.842;6.084;2023-10-31T05:06:36;10.64;95.31
66144;SHT31;52947;50.842;6.084;2023-10-31T05:09:04;10.49;94.91
66144;SHT31;52947;50.842;6.084;2023-10-31T05:11:34;10.67;94.87
66144;SHT31;52947;50.842;6.084;2023-10-31T05:14:02;10.77;94.81
66144;SHT31;52947;50.842;6.084;2023-10-31T05:16:30;10.71;94.07
66144;SHT31;52947;50.842;6.084;2023-10-31T05:18:58;10.84;94.41
66144;SHT31;52947;50.842;6.084;2023-10-31T05:21:31;11.03;94.33
66144;SHT31;52947;50.842;6.084;2023-10-31T05:23:59;10.76;93.75
66144;SHT31;52947;50.842;6.084;2023-10-31T05:26:27;10.64;94.06
66144;SHT31;52947;50.842;6.084;2023-10-31T05:28:57;10.63;94.28
66144;SHT31;52947;50.842;6.084;2023-10-31T05:31:26;10.57;94.77
66144;SHT31;52947;50.842;6.084;2023-10-31T05:33:54;10.70;94.54
66144;SHT31;52947;50.842;6.084;2023-10-31T05:36:25;10.66;94.41
66144;SHT31;52947;50.842;6.084;2023-10-31T05:38:54;10.59;94.73
66144;SHT31;52947;50.842;6.084;2023-10-31T05:41:22;10.69;95.00
66144;SHT31;52947;50.842;6.084;2023-10-31T05:43:50;10.61;93.78
66144;SHT31;52947;50.842;6.084;2023-10-31T05:46:20;10.69;94.17
66144;SHT31;52947;50.842;6.084;2023-10-31T05:48:48;10.63;94.01
66144;SHT31;52947;50.842;6.084;2023-10-31T05:51:18;10.67;94.03
66144;SHT31;52947;50.842;6.084;2023-10-31T05:53:47;10.79;94.28
66144;SHT31;52947;50.842;6.084;2023-10-31T05:56:16;10.71;94.62
66144;SHT31;52947;50.842;6.084;2023-10-31T05:58:44;10.83;93.53
66144;SHT31;52947;50.842;6.084;2023-10-31T06:01:13;10.85;93.96
66144;SHT31;52947;50.842;6.084;2023-10-31T06:03:42;10.81;94.37
66144;SHT31;52947;50.842;6.084;2023-10-31T06:06:11;10.77;93.39
66144;SHT31;52947;50.842;6.084;2023-10-31T06:08:40;10.64;93.87
66144;SHT31;52947;50.842;6.084;2023-10-31T06:11:08;10.71;93.59
66144;SHT31;52947;50.842;6.084;2023-10-31T06:13:39;10.69;93.79
66144;SHT31;52947;50.842;6.084;2023-10-31T06:16:07;10.80;94.73
66144;SHT31;52947;50.842;6.084;2023-10-31T06:18:37;10.83;93.89
66144;SHT31;52947;50.842;6.084;2023-10-31T06:21:07;10.55;94.10
66144;SHT31;52947;50.842;6.084;2023-10-31T06:23:36;10.73;95.12
66144;SHT31;52947;50.842;6.084;2023-10-31T06:26:05;10.80;93.68
66144;SHT31;52947;50.842;6.084;2023-10-31T06:28:33;10.59;93.52
66144;SHT31;52947;50.842;6.084;2023-10-31T06:31:11;10.93;94.36
66144;SHT31;52947;50.842;6.084;2023-10-31T06:33:40;10.90;94.29
66144;SHT31;52947;50.842;6.084;2023-10-31T06:36:10;10.64;93.67
66144;SHT31;52947;50.842;6.084;2023-10-31T06:38:38;10.80;94.45
66144;SHT31;52947;50.842;6.084;2023-10-31T06:41:06;10.71;93.14
66144;SHT31;52947;50.842;6.084;2023-10-31T06:43:34;10.53;93.39
66144;SHT31;52947;50.842;6.084;2023-10-31T06:46:03;10.60;94.08
66144;SHT31;52947;50.842;6.084;2023-10-31T06:48:32;10.64;93.51
66144;SHT31;52947;50.842;6.084;2023-10-31T06:50:59;10.57;93.65
66144;SHT31;52947;50.842;6.084;2023-10-31T06:53:29;10.42;94.06
66144;SHT31;52947;50.842;6.084;2023-10-31T06:55:57;10.66;93.89
66144;SHT31;52947;50.842;6.084;2023-10-31T06:58:25;10.46;94.22
66144;SHT31;52947;50.842;6.084;2023-10-31T07:00:53;10.52;94.75
66144;SHT31;52947;50.842;6.084;2023-10-31T07:03:22;10.39;94.18
66144;SHT31;52947;50.842;6.084;2023-10-31T07:05:50;10.66;93.97
66144;SHT31;52947;50.842;6.084;2023-10-31T07:08:18;10.45;93.79
66144;SHT31;52947;50.842;6.084;2023-10-31T07:10:47;10.64;93.45
66144;SHT31;52947;50.842;6.084;2023-10-31T07:13:15;11.54;92.04
66144;SHT31;52947;50.842;6.084;2023-10-31T07:15:44;12.00;89.70
66144;SHT31;52947;50.842;6.084;2023-10-31T07:18:14;12.54;88.98
66144;SHT31;52947;50.842;6.084;2023-10-31T07:20:42;12.48;87.77
66144;SHT31;52947;50.842;6.084;2023-10-31T07:23:10;13.36;87.21
66144;SHT31;52947;50.842;6.084;2023-10-31T07:25:38;13.71;85.37
66144;SHT31;52947;50.842;6.084;2023-10-31T07:28:07;13.50;84.98
66144;SHT31;52947;50.842;6.084;2023-10-31T07:30:36;13.04;87.61
66144;SHT31;52947;50.842;6.084;2023-10-31T07:33:04;12.84;88.21
66144;SHT31;52947;50.842;6.084;2023-10-31T07:35:32;12.27;88.13
66144;SHT31;52947;50.842;6.084;2023-10-31T07:38:00;12.02;89.24
66144;SHT31;52947;50.842;6.084;2023-10-31T07:40:28;11.57;90.58
66144;SHT31;52947;50.842;6.084;2023-10-31T07:42:56;11.42;91.22
66144;SHT31;52947;50.842;6.084;2023-10-31T07:45:25;11.24;91.82
66144;SHT31;52947;50.842;6.084;2023-10-31T07:47:53;11.08;92.82
66144;SHT31;52947;50.842;6.084;2023-10-31T07:50:21;11.10;92.62
66144;SHT31;52947;50.842;6.084;2023-10-31T07:52:49;11.90;90.75
66144;SHT31;52947;50.842;6.084;2023-10-31T07:55:17;12.60;88.80
66144;SHT31;52947;50.842;6.084;2023-10-31T07:57:45;12.38;89.97
66144;SHT31;52947;50.842;6.084;2023-10-31T08:00:14;11.94;89.92
66144;SHT31;52947;50.842;6.084;2023-10-31T08:02:44;11.58;90.81
66144;SHT31;52947;50.842;6.084;2023-10-31T08:05:12;11.39;91.71
66144;SHT31;52947;50.842;6.084;2023-10-31T08:07:40;11.52;92.11
66144;SHT31;52947;50.842;6.084;2023-10-31T08:10:09;11.46;91.84
66144;SHT31;52947;50.842;6.084;2023-10-31T08:12:37;11.75;91.16
66144;SHT31;52947;50.842;6.084;2023-10-31T08:15:06;13.47;88.15
66144;SHT31;52947;50.842;6.084;2023-10-31T08:17:34;13.71;85.21
66144;SHT31;52947;50.842;6.084;2023-10-31T08:20:04;14.58;82.71
66144;SHT31;52947;50.842;6.084;2023-10-31T08:22:33;15.47;81.06
66144;SHT31;52947;50.842;6.084;2023-10-31T08:25:01;15.67;78.98
66144;SHT31;52947;50.842;6.084;2023-10-31T08:27:29;16.01;79.41
66144;SHT31;52947;50.842;6.084;2023-10-31T08:29:57;16.56;76.91
66144;SHT31;52947;50.842;6.084;2023-10-31T08:32:25;16.97;76.25
66144;SHT31;52947;50.842;6.084;2023-10-31T08:34:53;17.72;75.32
66144;SHT31;52947;50.842;6.084;2023-10-31T08:37:24;17.28;74.81
66144;SHT31;52947;50.842;6.084;2023-10-31T08:39:52;17.48;74.44
66144;SHT31;52947;50.842;6.084;2023-10-31T08:42:20;17.76;74.26
66144;SHT31;52947;50.842;6.084;2023-10-31T08:44:48;16.79;76.37
66144;SHT31;52947;50.842;6.084;2023-10-31T08:47:16;16.26;75.22
66144;SHT31;52947;50.842;6.084;2023-10-31T08:49:45;16.36;76.36
66144;SHT31;52947;50.842;6.084;2023-10-31T08:52:13;17.25;76.25
66144;SHT31;52947;50.842;6.084;2023-10-31T08:54:42;17.18;73.20
66144;SHT31;52947;50.842;6.084;2023-10-31T08:57:10;17.80;72.96
66144;SHT31;52947;50.842;6.084;2023-10-31T08:59:38;18.55;71.11
66144;SHT31;52947;50.842;6.084;2023-10-31T09:02:06;17.70;71.22
66144;SHT31;52947;50.842;6.084;2023-10-31T09:04:34;17.69;72.66
66144;SHT31;52947;50.842;6.084;2023-10-31T09:07:02;17.66;70.88
66144;SHT31;52947;50.842;6.084;2023-10-31T09:09:30;17.82;71.28
66144;SHT31;52947;50.842;6.084;2023-10-31T09:12:00;17.89;71.53
66144;SHT31;52947;50.842;6.084;2023-10-31T09:14:28;17.80;71.83
66144;SHT31;52947;50.842;6.084;2023-10-31T09:16:56;17.56;71.74
66144;SHT31;52947;50.842;6.084;2023-10-31T09:19:24;17.72;72.25
66144;SHT31;52947;50.842;6.084;2023-10-31T09:21:52;17.82;71.15
66144;SHT31;52947;50.842;6.084;2023-10-31T09:24:20;17.53;71.59
66144;SHT31;52947;50.842;6.084;2023-10-31T09:26:48;16.22;75.00
66144;SHT31;52947;50.842;6.084;2023-10-31T09:29:17;16.02;75.70
66144;SHT31;52947;50.842;6.084;2023-10-31T09:31:55;15.67;77.33
66144;SHT31;52947;50.842;6.084;2023-10-31T09:34:23;15.69;76.79
66144;SHT31;52947;50.842;6.084;2023-10-31T09:36:52;16.06;76.96
66144;SHT31;52947;50.842;6.084;2023-10-31T09:39:19;16.06;74.62
66144;SHT31;52947;50.842;6.084;2023-10-31T09:41:49;16.02;75.28
66144;SHT31;52947;50.842;6.084;2023-10-31T09:44:22;15.44;77.00
66144;SHT31;52947;50.842;6.084;2023-10-31T09:46:51;15.03;78.54
66144;SHT31;52947;50.842;6.084;2023-10-31T09:49:20;15.43;77.90
66144;SHT31;52947;50.842;6.084;2023-10-31T09:51:48;14.79;78.14
66144;SHT31;52947;50.842;6.084;2023-10-31T09:54:17;14.18;80.29
66144;SHT31;52947;50.842;6.084;2023-10-31T09:56:45;13.71;81.78
66144;SHT31;52947;50.842;6.084;2023-10-31T09:59:14;13.16;82.64
66144;SHT31;52947;50.842;6.084;2023-10-31T10:01:44;12.95;83.44
66144;SHT31;52947;50.842;6.084;2023-10-31T10:04:12;13.39;83.15
66144;SHT31;52947;50.842;6.084;2023-10-31T10:06:50;13.42;82.73
66144;SHT31;52947;50.842;6.084;2023-10-31T10:09:18;13.12;83.05
66144;SHT31;52947;50.842;6.084;2023-10-31T10:11:46;14.00;81.40
66144;SHT31;52947;50.842;6.084;2023-10-31T10:14:14;14.96;79.81
66144;SHT31;52947;50.842;6.084;2023-10-31T10:16:45;14.59;79.70
66144;SHT31;52947;50.842;6.084;2023-10-31T10:19:18;14.99;78.63
66144;SHT31;52947;50.842;6.084;2023-10-31T10:21:48;16.74;74.40
66144;SHT31;52947;50.842;6.084;2023-10-31T10:24:16;17.43;71.68
66144;SHT31;52947;50.842;6.084;2023-10-31T10:26:44;17.79;71.68
66144;SHT31;52947;50.842;6.084;2023-10-31T10:29:12;18.94;68.80
66144;SHT31;52947;50.842;6.084;2023-10-31T10:31:40;17.87;69.81
66144;SHT31;52947;50.842;6.084;2023-10-31T10:34:10;17.14;71.65
66144;SHT31;52947;50.842;6.084;2023-10-31T10:36:39;17.51;71.28
66144;SHT31;52947;50.842;6.084;2023-10-31T10:39:07;16.74;73.02
66144;SHT31;52947;50.842;6.084;2023-10-31T10:41:37;16.30;73.59
66144;SHT31;52947;50.842;6.084;2023-10-31T10:44:08;15.10;76.46
66144;SHT31;52947;50.842;6.084;2023-10-31T10:46:40;14.79;78.17
66144;SHT31;52947;50.842;6.084;2023-10-31T10:49:11;14.34;79.60
66144;SHT31;52947;50.842;6.084;2023-10-31T10:51:43;14.24;80.66
66144;SHT31;52947;50.842;6.084;2023-10-31T10:54:19;14.18;80.87
66144;SHT31;52947;50.842;6.084;2023-10-31T10:56:54;13.91;81.14
66144;SHT31;52947;50.842;6.084;2023-10-31T10:59:32;13.97;81.35
66144;SHT31;52947;50.842;6.084;2023-10-31T11:02:03;14.25;80.19
66144;SHT31;52947;50.842;6.084;2023-10-31T11:04:35;14.10;80.77
66144;SHT31;52947;50.842;6.084;2023-10-31T11:07:04;14.36;79.96
66144;SHT31;52947;50.842;6.084;2023-10-31T11:09:33;14.24;80.75
66144;SHT31;52947;50.842;6.084;2023-10-31T11:12:02;14.15;81.02
66144;SHT31;52947;50.842;6.084;2023-10-31T11:14:30;13.94;81.59
66144;SHT31;52947;50.842;6.084;2023-10-31T11:17:01;13.86;81.10
66144;SHT31;52947;50.842;6.084;2023-10-31T11:19:35;13.56;82.56
66144;SHT31;52947;50.842;6.084;2023-10-31T11:22:05;13.33;83.32
66144;SHT31;52947;50.842;6.084;2023-10-31T11:24:36;13.39;83.53
66144;SHT31;52947;50.842;6.084;2023-10-31T11:27:06;13.36;83.72
66144;SHT31;52947;50.842;6.084;2023-10-31T11:29:36;13.45;83.11
66144;SHT31;52947;50.842;6.084;2023-10-31T11:32:08;13.40;83.06
66144;SHT31;52947;50.842;6.084;2023-10-31T11:34:39;13.70;82.95
66144;SHT31;52947;50.842;6.084;2023-10-31T11:37:23;13.83;82.61
66144;SHT31;52947;50.842;6.084;2023-10-31T11:40:18;14.29;81.36
66144;SHT31;52947;50.842;6.084;2023-10-31T11:42:47;14.15;81.00
66144;SHT31;52947;50.842;6.084;2023-10-31T11:45:31;14.42;80.39
66144;SHT31;52947;50.842;6.084;2023-10-31T11:47:59;14.38;81.19
66144;SHT31;52947;50.842;6.084;2023-10-31T11:50:29;14.35;81.57
66144;SHT31;52947;50.842;6.084;2023-10-31T11:53:02;14.54;80.90
66144;SHT31;52947;50.842;6.084;2023-10-31T11:55:33;14.38;81.79
66144;SHT31;52947;50.842;6.084;2023-10-31T11:58:16;14.07;82.42
66144;SHT31;52947;50.842;6.084;2023-10-31T12:00:44;14.15;82.27
66144;SHT31;52947;50.842;6.084;2023-10-31T12:03:15;14.20;81.76
66144;SHT31;52947;50.842;6.084;2023-10-31T12:05:56;14.10;81.85
66144;SHT31;52947;50.842;6.084;2023-10-31T12:08:25;13.97;81.61
66144;SHT31;52947;50.842;6.084;2023-10-31T12:11:07;14.87;80.83
66144;SHT31;52947;50.842;6.084;2023-10-31T12:13:36;15.79;76.99
66144;SHT31;52947;50.842;6.084;2023-10-31T12:16:05;15.79;77.54
66144;SHT31;52947;50.842;6.084;2023-10-31T12:18:34;16.53;75.54
66144;SHT31;52947;50.842;6.084;2023-10-31T12:21:04;16.08;76.43
66144;SHT31;52947;50.842;6.084;2023-10-31T12:23:34;15.72;77.70
66144;SHT31;52947;50.842;6.084;2023-10-31T12:26:02;15.78;76.60
66144;SHT31;52947;50.842;6.084;2023-10-31T12:28:30;15.22;77.80
66144;SHT31;52947;50.842;6.084;2023-10-31T12:30:58;14.58;78.81
66144;SHT31;52947;50.842;6.084;2023-10-31T12:33:27;14.92;78.73
66144;SHT31;52947;50.842;6.084;2023-10-31T12:35:59;14.82;78.53
66144;SHT31;52947;50.842;6.084;2023-10-31T12:38:29;15.24;77.68
66144;SHT31;52947;50.842;6.084;2023-10-31T12:40:58;14.58;79.24
66144;SHT31;52947;50.842;6.084;2023-10-31T12:43:26;14.24;80.35
66144;SHT31;52947;50.842;6.084;2023-10-31T12:45:58;14.05;81.42
66144;SHT31;52947;50.842;6.084;2023-10-31T12:48:26;13.90;81.71
66144;SHT31;52947;50.842;6.084;2023-10-31T12:51:06;13.93;81.29
66144;SHT31;52947;50.842;6.084;2023-10-31T12:53:36;13.97;81.55
66144;SHT31;52947;50.842;6.084;2023-10-31T12:56:05;14.48;80.78
66144;SHT31;52947;50.842;6.084;2023-10-31T12:58:34;14.34;80.53
66144;SHT31;52947;50.842;6.084;2023-10-31T13:01:10;15.75;76.88
66144;SHT31;52947;50.842;6.084;2023-10-31T13:03:48;17.11;73.46
66144;SHT31;52947;50.842;6.084;2023-10-31T13:06:17;17.59;72.60
66144;SHT31;52947;50.842;6.084;2023-10-31T13:08:47;16.83;72.62
66144;SHT31;52947;50.842;6.084;2023-10-31T13:11:15;16.85;72.16
66144;SHT31;52947;50.842;6.084;2023-10-31T13:13:44;16.18;75.17
66144;SHT31;52947;50.842;6.084;2023-10-31T13:16:12;16.18;75.19
66144;SHT31;52947;50.842;6.084;2023-10-31T13:18:40;16.06;75.76
66144;SHT31;52947;50.842;6.084;2023-10-31T13:21:08;15.75;76.47
66144;SHT31;52947;50.842;6.084;2023-10-31T13:23:37;14.69;79.34
66144;SHT31;52947;50.842;6.084;2023-10-31T13:26:07;14.14;80.45
66144;SHT31;52947;50.842;6.084;2023-10-31T13:28:35;13.71;82.40
66144;SHT31;52947;50.842;6.084;2023-10-31T13:31:05;13.38;83.14
66144;SHT31;52947;50.842;6.084;2023-10-31T13:33:34;13.30;83.69
66144;SHT31;52947;50.842;6.084;2023-10-31T13:36:03;13.23;84.27
66144;SHT31;52947;50.842;6.084;2023-10-31T13:38:31;13.26;84.35
66144;SHT31;52947;50.842;6.084;2023-10-31T13:40:59;13.27;84.39
66144;SHT31;52947;50.842;6.084;2023-10-31T13:43:29;13.36;84.05
66144;SHT31;52947;50.842;6.084;2023-10-31T13:45:57;13.47;84.15
66144;SHT31;52947;50.842;6.084;2023-10-31T13:48:25;13.52;84.10
66144;SHT31;52947;50.842;6.084;2023-10-31T13:50:53;13.71;83.66
66144;SHT31;52947;50.842;6.084;2023-10-31T13:53:21;13.83;83.48
66144;SHT31;52947;50.842;6.084;2023-10-31T13:55:49;13.80;83.51
66144;SHT31;52947;50.842;6.084;2023-10-31T13:58:17;13.71;83.53
66144;SHT31;52947;50.842;6.084;2023-10-31T14:00:48;13.53;84.09
66144;SHT31;52947;50.842;6.084;2023-10-31T14:03:16;13.52;83.84
66144;SHT31;52947;50.842;6.084;2023-10-31T14:05:44;13.39;84.32
66144;SHT31;52947;50.842;6.084;2023-10-31T14:08:12;13.32;84.66
66144;SHT31;52947;50.842;6.084;2023-10-31T14:10:40;13.11;85.22
66144;SHT31;52947;50.842;6.084;2023-10-31T14:13:12;13.13;85.46
66144;SHT31;52947;50.842;6.084;2023-10-31T14:15:41;13.18;85.64
66144;SHT31;52947;50.842;6.084;2023-10-31T14:18:10;13.12;86.05
66144;SHT31;52947;50.842;6.084;2023-10-31T14:20:38;13.13;86.04
66144;SHT31;52947;50.842;6.084;2023-10-31T14:23:07;13.02;86.57
66144;SHT31;52947;50.842;6.084;2023-10-31T14:25:35;12.92;87.24
66144;SHT31;52947;50.842;6.084;2023-10-31T14:28:07;12.80;88.44
66144;SHT31;52947;50.842;6.084;2023-10-31T14:30:35;12.53;88.89
66144;SHT31;52947;50.842;6.084;2023-10-31T14:33:03;12.33;89.35
66144;SHT31;52947;50.842;6.084;2023-10-31T14:35:32;12.20;89.51
66144;SHT31;52947;50.842;6.084;2023-10-31T14:38:02;12.16;90.43
66144;SHT31;52947;50.842;6.084;2023-10-31T14:40:30;12.07;90.80
66144;SHT31;52947;50.842;6.084;2023-10-31T14:42:58;12.07;90.75
66144;SHT31;52947;50.842;6.084;2023-10-31T14:45:26;11.96;91.85
66144;SHT31;52947;50.842;6.084;2023-10-31T14:47:54;11.82;92.29
66144;SHT31;52947;50.842;6.084;2023-10-31T14:50:22;11.76;92.89
66144;SHT31;52947;50.842;6.084;2023-10-31T14:52:51;11.78;92.91
66144;SHT31;52947;50.842;6.084;2023-10-31T14:55:19;11.76;92.96
66144;SHT31;52947;50.842;6.084;2023-10-31T14:57:47;11.65;93.72
66144;SHT31;52947;50.842;6.084;2023-10-31T15:00:16;11.66;93.84
66144;SHT31;52947;50.842;6.084;2023-10-31T15:02:44;11.62;93.90
66144;SHT31;52947;50.842;6.084;2023-10-31T15:05:12;11.81;94.53
66144;SHT31;52947;50.842;6.084;2023-10-31T15:07:40;12.23;95.43
66144;SHT31;52947;50.842;6.084;2023-10-31T15:10:09;12.33;92.90
66144;SHT31;52947;50.842;6.084;2023-10-31T15:12:37;12.41;93.06
66144;SHT31;52947;50.842;6.084;2023-10-31T15:15:06;12.51;93.03
66144;SHT31;52947;50.842;6.084;2023-10-31T15:17:37;12.41;92.72
66144;SHT31;52947;50.842;6.084;2023-10-31T15:20:06;12.43;92.57
66144;SHT31;52947;50.842;6.084;2023-10-31T15:22:36;12.36;92.80
66144;SHT31;52947;50.842;6.084;2023-10-31T15:25:05;12.40;92.59
66144;SHT31;52947;50.842;6.084;2023-10-31T15:27:34;12.43;93.24
66144;SHT31;52947;50.842;6.084;2023-10-31T15:30:02;12.10;92.41
66144;SHT31;52947;50.842;6.084;2023-10-31T15:32:31;11.92;93.25
66144;SHT31;52947;50.842;6.084;2023-10-31T15:35:00;11.83;93.53
66144;SHT31;52947;50.842;6.084;2023-10-31T15:37:29;11.76;94.12
66144;SHT31;52947;50.842;6.084;2023-10-31T15:39:57;11.73;94.46
66144;SHT31;52947;50.842;6.084;2023-10-31T15:42:25;11.63;94.62